sensor_id;sensor_type;location;lat;lon;timestamp;P1;durP1;ratioP1;P2;durP2;ratioP2
21905;SDS011;11117;48.644;9.006;2023-05-07T00:01:23;5.23;;;4.20;;
21905;SDS011;11117;48.644;9.006;2023-05-07T00:03:49;6.50;;;4.50;;
21905;SDS011;11117;48.644;9.006;2023-05-07T00:06:14;8.13;;;4.70;;
21905;SDS011;11117;48.644;9.006;2023-05-07T00:08:40;8.43;;;4.40;;
21905;SDS011;11117;48.644;9.006;2023-05-07T00:11:06;7.03;;;4.87;;
21905;SDS011;11117;48.644;9.006;2023-05-07T00:13:32;8.47;;;5.10;;
21905;SDS011;11117;48.644;9.006;2023-05-07T00:15:57;7.73;;;5.10;;
21905;SDS011;11117;48.644;9.006;2023-05-07T00:18:23;6.63;;;5.00;;
21905;SDS011;11117;48.644;9.006;2023-05-07T00:20:48;6.67;;;4.60;;
21905;SDS011;11117;48.644;9.006;2023-05-07T00:23:14;6.67;;;4.87;;
21905;SDS011;11117;48.644;9.006;2023-05-07T00:25:39;7.50;;;4.77;;
21905;SDS011;11117;48.644;9.006;2023-05-07T00:28:05;6.83;;;4.77;;
21905;SDS011;11117;48.644;9.006;2023-05-07T00:30:30;10.57;;;5.67;;
21905;SDS011;11117;48.644;9.006;2023-05-07T00:32:56;8.30;;;5.67;;
21905;SDS011;11117;48.644;9.006;2023-05-07T00:35:21;7.33;;;5.63;;
21905;SDS011;11117;48.644;9.006;2023-05-07T00:37:47;7.20;;;5.80;;
21905;SDS011;11117;48.644;9.006;2023-05-07T00:40:13;9.37;;;6.33;;
21905;SDS011;11117;48.644;9.006;2023-05-07T00:42:38;9.47;;;5.93;;
21905;SDS011;11117;48.644;9.006;2023-05-07T00:45:04;12.53;;;6.10;;
21905;SDS011;11117;48.644;9.006;2023-05-07T00:47:30;8.90;;;6.37;;
21905;SDS011;11117;48.644;9.006;2023-05-07T00:49:56;8.20;;;6.30;;
21905;SDS011;11117;48.644;9.006;2023-05-07T00:52:22;10.93;;;5.70;;
21905;SDS011;11117;48.644;9.006;2023-05-07T00:54:50;8.83;;;5.27;;
21905;SDS011;11117;48.644;9.006;2023-05-07T00:57:16;7.97;;;5.97;;
21905;SDS011;11117;48.644;9.006;2023-05-07T00:59:42;8.43;;;6.37;;
21905;SDS011;11117;48.644;9.006;2023-05-07T01:02:08;10.90;;;6.10;;
21905;SDS011;11117;48.644;9.006;2023-05-07T01:04:33;6.80;;;5.70;;
21905;SDS011;11117;48.644;9.006;2023-05-07T01:06:59;9.40;;;5.80;;
21905;SDS011;11117;48.644;9.006;2023-05-07T01:09:26;8.57;;;5.90;;
21905;SDS011;11117;48.644;9.006;2023-05-07T01:11:52;10.13;;;5.70;;
21905;SDS011;11117;48.644;9.006;2023-05-07T01:14:19;11.00;;;5.67;;
21905;SDS011;11117;48.644;9.006;2023-05-07T01:16:45;12.97;;;5.40;;
21905;SDS011;11117;48.644;9.006;2023-05-07T01:19:11;7.87;;;5.53;;
21905;SDS011;11117;48.644;9.006;2023-05-07T01:21:37;7.77;;;4.83;;
21905;SDS011;11117;48.644;9.006;2023-05-07T01:24:04;7.30;;;5.37;;
21905;SDS011;11117;48.644;9.006;2023-05-07T01:26:30;6.43;;;4.97;;
21905;SDS011;11117;48.644;9.006;2023-05-07T01:28:56;5.67;;;4.83;;
21905;SDS011;11117;48.644;9.006;2023-05-07T01:31:21;19.23;;;5.50;;
21905;SDS011;11117;48.644;9.006;2023-05-07T01:33:48;7.13;;;5.50;;
21905;SDS011;11117;48.644;9.006;2023-05-07T01:36:17;8.67;;;5.60;;
21905;SDS011;11117;48.644;9.006;2023-05-07T01:38:43;7.43;;;5.67;;
21905;SDS011;11117;48.644;9.006;2023-05-07T01:41:11;7.87;;;5.40;;
21905;SDS011;11117;48.644;9.006;2023-05-07T01:43:37;7.03;;;5.70;;
21905;SDS011;11117;48.644;9.006;2023-05-07T01:46:02;7.40;;;5.53;;
21905;SDS011;11117;48.644;9.006;2023-05-07T01:48:29;7.40;;;5.80;;
21905;SDS011;11117;48.644;9.006;2023-05-07T01:50:55;7.57;;;5.80;;
21905;SDS011;11117;48.644;9.006;2023-05-07T01:53:21;7.37;;;5.77;;
21905;SDS011;11117;48.644;9.006;2023-05-07T01:55:46;11.33;;;5.43;;
21905;SDS011;11117;48.644;9.006;2023-05-07T01:58:12;10.77;;;5.77;;
21905;SDS011;11117;48.644;9.006;2023-05-07T02:00:37;11.60;;;6.67;;
21905;SDS011;11117;48.644;9.006;2023-05-07T02:03:04;10.13;;;6.13;;
21905;SDS011;11117;48.644;9.006;2023-05-07T02:05:29;9.00;;;6.10;;
21905;SDS011;11117;48.644;9.006;2023-05-07T02:07:55;8.37;;;5.53;;
21905;SDS011;11117;48.644;9.006;2023-05-07T02:10:20;8.23;;;6.17;;
21905;SDS011;11117;48.644;9.006;2023-05-07T02:12:46;9.53;;;6.07;;
21905;SDS011;11117;48.644;9.006;2023-05-07T02:15:11;11.87;;;6.27;;
21905;SDS011;11117;48.644;9.006;2023-05-07T02:17:57;8.47;;;6.50;;
21905;SDS011;11117;48.644;9.006;2023-05-07T02:20:23;8.63;;;6.50;;
21905;SDS011;11117;48.644;9.006;2023-05-07T02:22:49;9.63;;;6.87;;
21905;SDS011;11117;48.644;9.006;2023-05-07T02:25:14;8.57;;;6.70;;
21905;SDS011;11117;48.644;9.006;2023-05-07T02:27:40;8.43;;;6.10;;
21905;SDS011;11117;48.644;9.006;2023-05-07T02:30:06;11.10;;;6.20;;
21905;SDS011;11117;48.644;9.006;2023-05-07T02:32:32;9.50;;;6.07;;
21905;SDS011;11117;48.644;9.006;2023-05-07T02:34:57;12.00;;;6.40;;
21905;SDS011;11117;48.644;9.006;2023-05-07T02:37:23;8.23;;;5.80;;
21905;SDS011;11117;48.644;9.006;2023-05-07T02:39:48;7.53;;;5.43;;
21905;SDS011;11117;48.644;9.006;2023-05-07T02:42:14;7.60;;;5.20;;
21905;SDS011;11117;48.644;9.006;2023-05-07T02:44:39;8.63;;;5.13;;
21905;SDS011;11117;48.644;9.006;2023-05-07T02:47:05;11.53;;;5.40;;
21905;SDS011;11117;48.644;9.006;2023-05-07T02:49:30;10.40;;;4.80;;
21905;SDS011;11117;48.644;9.006;2023-05-07T02:51:57;9.60;;;4.93;;
21905;SDS011;11117;48.644;9.006;2023-05-07T02:54:22;9.90;;;5.37;;
21905;SDS011;11117;48.644;9.006;2023-05-07T02:56:48;7.87;;;5.40;;
21905;SDS011;11117;48.644;9.006;2023-05-07T02:59:13;11.83;;;5.87;;
21905;SDS011;11117;48.644;9.006;2023-05-07T03:01:39;7.17;;;5.10;;
21905;SDS011;11117;48.644;9.006;2023-05-07T03:04:04;6.07;;;5.17;;
21905;SDS011;11117;48.644;9.006;2023-05-07T03:06:30;8.43;;;5.27;;
21905;SDS011;11117;48.644;9.006;2023-05-07T03:08:55;8.00;;;5.50;;
21905;SDS011;11117;48.644;9.006;2023-05-07T03:11:21;7.87;;;5.80;;
21905;SDS011;11117;48.644;9.006;2023-05-07T03:13:46;12.40;;;6.17;;
21905;SDS011;11117;48.644;9.006;2023-05-07T03:16:13;10.57;;;6.90;;
21905;SDS011;11117;48.644;9.006;2023-05-07T03:18:39;10.43;;;8.30;;
21905;SDS011;11117;48.644;9.006;2023-05-07T03:21:04;10.57;;;7.13;;
21905;SDS011;11117;48.644;9.006;2023-05-07T03:23:30;10.60;;;6.53;;
21905;SDS011;11117;48.644;9.006;2023-05-07T03:25:55;8.30;;;5.97;;
21905;SDS011;11117;48.644;9.006;2023-05-07T03:28:21;12.10;;;6.03;;
21905;SDS011;11117;48.644;9.006;2023-05-07T03:30:46;8.90;;;6.03;;
21905;SDS011;11117;48.644;9.006;2023-05-07T03:33:12;9.47;;;6.83;;
21905;SDS011;11117;48.644;9.006;2023-05-07T03:35:38;10.60;;;6.43;;
21905;SDS011;11117;48.644;9.006;2023-05-07T03:38:03;11.53;;;6.43;;
21905;SDS011;11117;48.644;9.006;2023-05-07T03:40:29;9.37;;;6.20;;
21905;SDS011;11117;48.644;9.006;2023-05-07T03:42:54;16.10;;;8.60;;
21905;SDS011;11117;48.644;9.006;2023-05-07T03:45:20;9.40;;;6.83;;
21905;SDS011;11117;48.644;9.006;2023-05-07T03:47:45;11.30;;;6.83;;
21905;SDS011;11117;48.644;9.006;2023-05-07T03:50:11;11.87;;;6.60;;
21905;SDS011;11117;48.644;9.006;2023-05-07T03:52:36;9.13;;;6.83;;
21905;SDS011;11117;48.644;9.006;2023-05-07T03:55:02;10.10;;;6.87;;
21905;SDS011;11117;48.644;9.006;2023-05-07T03:57:28;12.13;;;7.00;;
21905;SDS011;11117;48.644;9.006;2023-05-07T03:59:53;10.87;;;7.13;;
21905;SDS011;11117;48.644;9.006;2023-05-07T04:02:19;9.00;;;6.60;;
21905;SDS011;11117;48.644;9.006;2023-05-07T04:04:44;11.27;;;6.93;;
21905;SDS011;11117;48.644;9.006;2023-05-07T04:07:10;10.07;;;6.83;;
21905;SDS011;11117;48.644;9.006;2023-05-07T04:09:35;10.40;;;6.57;;
21905;SDS011;11117;48.644;9.006;2023-05-07T04:12:01;9.33;;;7.23;;
21905;SDS011;11117;48.644;9.006;2023-05-07T04:14:26;8.73;;;6.77;;
21905;SDS011;11117;48.644;9.006;2023-05-07T04:16:52;10.37;;;7.70;;
21905;SDS011;11117;48.644;9.006;2023-05-07T04:19:17;11.60;;;7.67;;
21905;SDS011;11117;48.644;9.006;2023-05-07T04:21:43;9.23;;;7.20;;
21905;SDS011;11117;48.644;9.006;2023-05-07T04:24:08;12.27;;;7.00;;
21905;SDS011;11117;48.644;9.006;2023-05-07T04:26:34;11.90;;;6.90;;
21905;SDS011;11117;48.644;9.006;2023-05-07T04:28:59;8.93;;;6.70;;
21905;SDS011;11117;48.644;9.006;2023-05-07T04:31:25;10.20;;;6.67;;
21905;SDS011;11117;48.644;9.006;2023-05-07T04:33:50;11.00;;;6.93;;
21905;SDS011;11117;48.644;9.006;2023-05-07T04:36:16;10.00;;;6.90;;
21905;SDS011;11117;48.644;9.006;2023-05-07T04:38:41;11.23;;;6.73;;
21905;SDS011;11117;48.644;9.006;2023-05-07T04:41:32;9.50;;;6.07;;
21905;SDS011;11117;48.644;9.006;2023-05-07T04:43:57;9.97;;;6.00;;
21905;SDS011;11117;48.644;9.006;2023-05-07T04:46:23;11.47;;;9.47;;
21905;SDS011;11117;48.644;9.006;2023-05-07T04:48:48;10.13;;;8.97;;
21905;SDS011;11117;48.644;9.006;2023-05-07T04:51:14;10.23;;;7.17;;
21905;SDS011;11117;48.644;9.006;2023-05-07T04:53:40;10.70;;;6.80;;
21905;SDS011;11117;48.644;9.006;2023-05-07T04:56:07;10.20;;;6.93;;
21905;SDS011;11117;48.644;9.006;2023-05-07T04:58:32;8.90;;;6.47;;
21905;SDS011;11117;48.644;9.006;2023-05-07T05:00:58;8.00;;;6.37;;
21905;SDS011;11117;48.644;9.006;2023-05-07T05:03:24;7.73;;;5.93;;
21905;SDS011;11117;48.644;9.006;2023-05-07T05:05:50;9.07;;;5.40;;
21905;SDS011;11117;48.644;9.006;2023-05-07T05:08:16;7.13;;;5.43;;
21905;SDS011;11117;48.644;9.006;2023-05-07T05:10:41;6.50;;;5.63;;
21905;SDS011;11117;48.644;9.006;2023-05-07T05:13:07;9.17;;;7.00;;
21905;SDS011;11117;48.644;9.006;2023-05-07T05:15:32;8.40;;;6.83;;
21905;SDS011;11117;48.644;9.006;2023-05-07T05:17:58;7.73;;;5.57;;
21905;SDS011;11117;48.644;9.006;2023-05-07T05:20:23;6.07;;;4.50;;
21905;SDS011;11117;48.644;9.006;2023-05-07T05:22:49;12.97;;;5.17;;
21905;SDS011;11117;48.644;9.006;2023-05-07T05:25:15;6.23;;;4.67;;
21905;SDS011;11117;48.644;9.006;2023-05-07T05:27:40;7.90;;;4.97;;
21905;SDS011;11117;48.644;9.006;2023-05-07T05:30:06;6.47;;;4.83;;
21905;SDS011;11117;48.644;9.006;2023-05-07T05:32:32;6.80;;;4.77;;
21905;SDS011;11117;48.644;9.006;2023-05-07T05:34:57;8.77;;;4.60;;
21905;SDS011;11117;48.644;9.006;2023-05-07T05:37:23;7.80;;;5.07;;
21905;SDS011;11117;48.644;9.006;2023-05-07T05:39:48;8.93;;;4.38;;
21905;SDS011;11117;48.644;9.006;2023-05-07T05:42:14;7.47;;;4.10;;
21905;SDS011;11117;48.644;9.006;2023-05-07T05:44:39;5.15;;;4.15;;
21905;SDS011;11117;48.644;9.006;2023-05-07T05:47:05;5.05;;;4.03;;
21905;SDS011;11117;48.644;9.006;2023-05-07T05:49:30;5.25;;;4.20;;
21905;SDS011;11117;48.644;9.006;2023-05-07T05:51:56;6.30;;;3.85;;
21905;SDS011;11117;48.644;9.006;2023-05-07T05:54:21;4.80;;;4.20;;
21905;SDS011;11117;48.644;9.006;2023-05-07T05:56:47;5.65;;;4.13;;
21905;SDS011;11117;48.644;9.006;2023-05-07T05:59:13;6.35;;;3.72;;
21905;SDS011;11117;48.644;9.006;2023-05-07T06:01:39;7.38;;;3.92;;
21905;SDS011;11117;48.644;9.006;2023-05-07T06:04:04;4.93;;;3.60;;
21905;SDS011;11117;48.644;9.006;2023-05-07T06:06:30;4.00;;;3.45;;
21905;SDS011;11117;48.644;9.006;2023-05-07T06:08:55;8.30;;;3.75;;
21905;SDS011;11117;48.644;9.006;2023-05-07T06:11:21;8.60;;;3.92;;
21905;SDS011;11117;48.644;9.006;2023-05-07T06:13:46;4.50;;;3.60;;
21905;SDS011;11117;48.644;9.006;2023-05-07T06:16:14;5.60;;;3.75;;
21905;SDS011;11117;48.644;9.006;2023-05-07T06:18:40;8.65;;;3.90;;
21905;SDS011;11117;48.644;9.006;2023-05-07T06:21:06;4.88;;;3.70;;
21905;SDS011;11117;48.644;9.006;2023-05-07T06:23:32;6.80;;;3.88;;
21905;SDS011;11117;48.644;9.006;2023-05-07T06:25:57;6.82;;;3.83;;
21905;SDS011;11117;48.644;9.006;2023-05-07T06:28:23;8.32;;;4.20;;
21905;SDS011;11117;48.644;9.006;2023-05-07T06:30:48;5.40;;;3.90;;
21905;SDS011;11117;48.644;9.006;2023-05-07T06:33:14;4.47;;;3.70;;
21905;SDS011;11117;48.644;9.006;2023-05-07T06:35:40;5.13;;;3.53;;
21905;SDS011;11117;48.644;9.006;2023-05-07T06:38:05;6.30;;;3.65;;
21905;SDS011;11117;48.644;9.006;2023-05-07T06:40:31;8.65;;;4.13;;
21905;SDS011;11117;48.644;9.006;2023-05-07T06:42:56;6.10;;;3.85;;
21905;SDS011;11117;48.644;9.006;2023-05-07T06:45:22;5.70;;;3.47;;
21905;SDS011;11117;48.644;9.006;2023-05-07T06:47:47;5.43;;;3.55;;
21905;SDS011;11117;48.644;9.006;2023-05-07T06:50:13;5.70;;;3.40;;
21905;SDS011;11117;48.644;9.006;2023-05-07T06:52:38;4.75;;;3.63;;
21905;SDS011;11117;48.644;9.006;2023-05-07T06:55:04;7.32;;;4.00;;
21905;SDS011;11117;48.644;9.006;2023-05-07T06:57:30;6.15;;;3.90;;
21905;SDS011;11117;48.644;9.006;2023-05-07T06:59:55;10.18;;;4.05;;
21905;SDS011;11117;48.644;9.006;2023-05-07T07:02:21;5.13;;;3.75;;
21905;SDS011;11117;48.644;9.006;2023-05-07T07:04:47;6.68;;;3.80;;
21905;SDS011;11117;48.644;9.006;2023-05-07T07:07:12;4.15;;;3.22;;
21905;SDS011;11117;48.644;9.006;2023-05-07T07:09:38;6.13;;;3.70;;
21905;SDS011;11117;48.644;9.006;2023-05-07T07:12:03;7.60;;;3.47;;
21905;SDS011;11117;48.644;9.006;2023-05-07T07:14:29;4.57;;;3.55;;
21905;SDS011;11117;48.644;9.006;2023-05-07T07:16:54;8.07;;;3.30;;
21905;SDS011;11117;48.644;9.006;2023-05-07T07:19:20;4.13;;;3.22;;
21905;SDS011;11117;48.644;9.006;2023-05-07T07:21:45;4.82;;;3.08;;
21905;SDS011;11117;48.644;9.006;2023-05-07T07:24:12;4.53;;;3.20;;
21905;SDS011;11117;48.644;9.006;2023-05-07T07:26:38;6.15;;;3.17;;
21905;SDS011;11117;48.644;9.006;2023-05-07T07:29:04;4.07;;;3.05;;
21905;SDS011;11117;48.644;9.006;2023-05-07T07:31:29;7.45;;;3.10;;
21905;SDS011;11117;48.644;9.006;2023-05-07T07:33:55;3.80;;;2.83;;
21905;SDS011;11117;48.644;9.006;2023-05-07T07:36:20;6.22;;;2.60;;
21905;SDS011;11117;48.644;9.006;2023-05-07T07:38:46;5.30;;;2.80;;
21905;SDS011;11117;48.644;9.006;2023-05-07T07:41:13;3.80;;;2.70;;
21905;SDS011;11117;48.644;9.006;2023-05-07T07:43:39;3.70;;;2.40;;
21905;SDS011;11117;48.644;9.006;2023-05-07T07:46:04;5.45;;;3.15;;
21905;SDS011;11117;48.644;9.006;2023-05-07T07:48:30;5.72;;;2.90;;
21905;SDS011;11117;48.644;9.006;2023-05-07T07:50:55;5.10;;;2.70;;
21905;SDS011;11117;48.644;9.006;2023-05-07T07:53:21;5.45;;;2.72;;
21905;SDS011;11117;48.644;9.006;2023-05-07T07:55:47;4.13;;;2.38;;
21905;SDS011;11117;48.644;9.006;2023-05-07T07:58:12;3.33;;;2.35;;
21905;SDS011;11117;48.644;9.006;2023-05-07T08:00:38;4.03;;;2.47;;
21905;SDS011;11117;48.644;9.006;2023-05-07T08:03:03;4.22;;;2.60;;
21905;SDS011;11117;48.644;9.006;2023-05-07T08:05:29;4.93;;;2.80;;
21905;SDS011;11117;48.644;9.006;2023-05-07T08:07:54;4.03;;;2.55;;
21905;SDS011;11117;48.644;9.006;2023-05-07T08:10:21;3.03;;;2.08;;
21905;SDS011;11117;48.644;9.006;2023-05-07T08:12:49;2.75;;;2.25;;
21905;SDS011;11117;48.644;9.006;2023-05-07T08:15:15;4.60;;;2.17;;
21905;SDS011;11117;48.644;9.006;2023-05-07T08:17:41;4.43;;;1.70;;
21905;SDS011;11117;48.644;9.006;2023-05-07T08:20:07;4.35;;;2.03;;
21905;SDS011;11117;48.644;9.006;2023-05-07T08:22:36;7.50;;;2.40;;
21905;SDS011;11117;48.644;9.006;2023-05-07T08:25:02;2.22;;;1.95;;
21905;SDS011;11117;48.644;9.006;2023-05-07T08:27:28;1.98;;;1.70;;
21905;SDS011;11117;48.644;9.006;2023-05-07T08:29:54;4.10;;;1.98;;
21905;SDS011;11117;48.644;9.006;2023-05-07T08:32:19;3.03;;;1.83;;
21905;SDS011;11117;48.644;9.006;2023-05-07T08:34:45;3.03;;;1.70;;
21905;SDS011;11117;48.644;9.006;2023-05-07T08:37:12;3.83;;;1.92;;
21905;SDS011;11117;48.644;9.006;2023-05-07T08:39:37;3.13;;;1.90;;
21905;SDS011;11117;48.644;9.006;2023-05-07T08:42:03;4.13;;;1.80;;
21905;SDS011;11117;48.644;9.006;2023-05-07T08:44:29;5.07;;;1.70;;
21905;SDS011;11117;48.644;9.006;2023-05-07T08:47:00;2.30;;;1.70;;
21905;SDS011;11117;48.644;9.006;2023-05-07T08:49:27;2.65;;;1.90;;
21905;SDS011;11117;48.644;9.006;2023-05-07T08:51:53;2.53;;;1.67;;
21905;SDS011;11117;48.644;9.006;2023-05-07T08:54:20;2.83;;;1.80;;
21905;SDS011;11117;48.644;9.006;2023-05-07T08:56:46;3.40;;;1.70;;
21905;SDS011;11117;48.644;9.006;2023-05-07T08:59:12;2.05;;;1.80;;
21905;SDS011;11117;48.644;9.006;2023-05-07T09:01:38;3.83;;;1.77;;
21905;SDS011;11117;48.644;9.006;2023-05-07T09:04:03;4.10;;;1.70;;
21905;SDS011;11117;48.644;9.006;2023-05-07T09:06:29;4.70;;;2.00;;
21905;SDS011;11117;48.644;9.006;2023-05-07T09:08:55;4.93;;;2.15;;
21905;SDS011;11117;48.644;9.006;2023-05-07T09:11:24;2.35;;;1.88;;
21905;SDS011;11117;48.644;9.006;2023-05-07T09:13:53;2.42;;;1.60;;
21905;SDS011;11117;48.644;9.006;2023-05-07T09:16:20;6.78;;;1.95;;
21905;SDS011;11117;48.644;9.006;2023-05-07T09:18:53;4.20;;;2.13;;
21905;SDS011;11117;48.644;9.006;2023-05-07T09:21:19;3.38;;;2.03;;
21905;SDS011;11117;48.644;9.006;2023-05-07T09:23:47;4.40;;;2.17;;
21905;SDS011;11117;48.644;9.006;2023-05-07T09:26:15;3.13;;;2.10;;
21905;SDS011;11117;48.644;9.006;2023-05-07T09:28:41;3.03;;;2.03;;
21905;SDS011;11117;48.644;9.006;2023-05-07T09:31:08;5.28;;;2.22;;
21905;SDS011;11117;48.644;9.006;2023-05-07T09:33:34;3.35;;;1.95;;
21905;SDS011;11117;48.644;9.006;2023-05-07T09:36:01;3.47;;;1.85;;
21905;SDS011;11117;48.644;9.006;2023-05-07T09:38:34;4.20;;;2.00;;
21905;SDS011;11117;48.644;9.006;2023-05-07T09:41:08;5.97;;;2.10;;
21905;SDS011;11117;48.644;9.006;2023-05-07T09:43:35;6.82;;;2.10;;
21905;SDS011;11117;48.644;9.006;2023-05-07T09:46:09;4.97;;;2.22;;
21905;SDS011;11117;48.644;9.006;2023-05-07T09:48:38;5.60;;;2.30;;
21905;SDS011;11117;48.644;9.006;2023-05-07T09:51:06;3.15;;;2.00;;
21905;SDS011;11117;48.644;9.006;2023-05-07T09:53:50;2.45;;;2.03;;
21905;SDS011;11117;48.644;9.006;2023-05-07T09:56:21;4.43;;;2.00;;
21905;SDS011;11117;48.644;9.006;2023-05-07T09:58:47;2.75;;;2.03;;
21905;SDS011;11117;48.644;9.006;2023-05-07T10:01:15;5.13;;;2.33;;
21905;SDS011;11117;48.644;9.006;2023-05-07T10:03:42;4.40;;;2.20;;
21905;SDS011;11117;48.644;9.006;2023-05-07T10:06:10;3.65;;;2.45;;
21905;SDS011;11117;48.644;9.006;2023-05-07T10:08:38;4.72;;;1.95;;
21905;SDS011;11117;48.644;9.006;2023-05-07T10:11:04;6.57;;;2.60;;
21905;SDS011;11117;48.644;9.006;2023-05-07T10:13:30;3.75;;;2.10;;
21905;SDS011;11117;48.644;9.006;2023-05-07T10:15:57;3.58;;;2.15;;
21905;SDS011;11117;48.644;9.006;2023-05-07T10:18:23;2.95;;;2.00;;
21905;SDS011;11117;48.644;9.006;2023-05-07T10:20:50;4.22;;;2.15;;
21905;SDS011;11117;48.644;9.006;2023-05-07T10:23:18;6.53;;;2.05;;
21905;SDS011;11117;48.644;9.006;2023-05-07T10:25:48;8.57;;;2.20;;
21905;SDS011;11117;48.644;9.006;2023-05-07T10:28:14;5.80;;;2.40;;
21905;SDS011;11117;48.644;9.006;2023-05-07T10:30:49;5.30;;;2.00;;
21905;SDS011;11117;48.644;9.006;2023-05-07T10:33:22;3.35;;;2.15;;
21905;SDS011;11117;48.644;9.006;2023-05-07T10:35:51;5.15;;;2.30;;
21905;SDS011;11117;48.644;9.006;2023-05-07T10:38:24;3.65;;;2.30;;
21905;SDS011;11117;48.644;9.006;2023-05-07T10:40:51;3.53;;;2.00;;
21905;SDS011;11117;48.644;9.006;2023-05-07T10:43:16;8.65;;;2.60;;
21905;SDS011;11117;48.644;9.006;2023-05-07T10:45:42;3.17;;;1.92;;
21905;SDS011;11117;48.644;9.006;2023-05-07T10:50:33;4.38;;;2.30;;
21905;SDS011;11117;48.644;9.006;2023-05-07T10:55:44;3.25;;;2.20;;
21905;SDS011;11117;48.644;9.006;2023-05-07T10:58:29;2.60;;;1.80;;
21905;SDS011;11117;48.644;9.006;2023-05-07T11:00:58;2.88;;;1.92;;
21905;SDS011;11117;48.644;9.006;2023-05-07T11:03:25;4.38;;;2.13;;
21905;SDS011;11117;48.644;9.006;2023-05-07T11:11:18;4.25;;;2.10;;
21905;SDS011;11117;48.644;9.006;2023-05-07T11:13:44;3.30;;;2.00;;
21905;SDS011;11117;48.644;9.006;2023-05-07T11:18:50;3.28;;;2.00;;
21905;SDS011;11117;48.644;9.006;2023-05-07T11:24:12;5.72;;;1.83;;
21905;SDS011;11117;48.644;9.006;2023-05-07T11:26:48;2.33;;;1.75;;
21905;SDS011;11117;48.644;9.006;2023-05-07T11:29:15;3.58;;;1.98;;
21905;SDS011;11117;48.644;9.006;2023-05-07T11:31:52;4.60;;;1.95;;
21905;SDS011;11117;48.644;9.006;2023-05-07T11:34:22;6.97;;;2.13;;
21905;SDS011;11117;48.644;9.006;2023-05-07T11:36:49;4.88;;;2.38;;
21905;SDS011;11117;48.644;9.006;2023-05-07T11:39:28;3.80;;;1.92;;
21905;SDS011;11117;48.644;9.006;2023-05-07T11:41:57;2.65;;;1.67;;
21905;SDS011;11117;48.644;9.006;2023-05-07T11:44:23;2.22;;;1.98;;
21905;SDS011;11117;48.644;9.006;2023-05-07T11:46:49;2.08;;;1.73;;
21905;SDS011;11117;48.644;9.006;2023-05-07T11:49:14;5.35;;;1.88;;
21905;SDS011;11117;48.644;9.006;2023-05-07T11:51:40;4.78;;;2.70;;
21905;SDS011;11117;48.644;9.006;2023-05-07T11:54:06;6.30;;;1.95;;
21905;SDS011;11117;48.644;9.006;2023-05-07T11:56:33;4.50;;;2.25;;
21905;SDS011;11117;48.644;9.006;2023-05-07T11:59:00;3.78;;;2.25;;
21905;SDS011;11117;48.644;9.006;2023-05-07T12:01:25;4.45;;;2.47;;
21905;SDS011;11117;48.644;9.006;2023-05-07T12:03:51;3.30;;;2.30;;
21905;SDS011;11117;48.644;9.006;2023-05-07T12:06:16;2.50;;;2.30;;
21905;SDS011;11117;48.644;9.006;2023-05-07T12:08:43;4.78;;;3.30;;
21905;SDS011;11117;48.644;9.006;2023-05-07T12:11:21;7.13;;;3.80;;
21905;SDS011;11117;48.644;9.006;2023-05-07T12:13:48;4.57;;;3.20;;
21905;SDS011;11117;48.644;9.006;2023-05-07T12:16:14;6.75;;;3.03;;
21905;SDS011;11117;48.644;9.006;2023-05-07T12:18:39;6.68;;;3.20;;
21905;SDS011;11117;48.644;9.006;2023-05-07T12:21:06;5.82;;;2.90;;
21905;SDS011;11117;48.644;9.006;2023-05-07T12:23:33;10.63;;;3.20;;
21905;SDS011;11117;48.644;9.006;2023-05-07T12:25:59;7.25;;;2.72;;
21905;SDS011;11117;48.644;9.006;2023-05-07T12:28:25;2.17;;;1.73;;
21905;SDS011;11117;48.644;9.006;2023-05-07T12:30:51;5.20;;;1.80;;
21905;SDS011;11117;48.644;9.006;2023-05-07T12:33:18;10.88;;;3.13;;
21905;SDS011;11117;48.644;9.006;2023-05-07T12:35:44;9.32;;;3.20;;
21905;SDS011;11117;48.644;9.006;2023-05-07T12:38:11;14.98;;;3.55;;
21905;SDS011;11117;48.644;9.006;2023-05-07T12:40:40;9.43;;;3.30;;
21905;SDS011;11117;48.644;9.006;2023-05-07T12:43:06;11.75;;;4.00;;
21905;SDS011;11117;48.644;9.006;2023-05-07T12:45:39;7.57;;;3.53;;
21905;SDS011;11117;48.644;9.006;2023-05-07T12:48:06;16.23;;;3.97;;
21905;SDS011;11117;48.644;9.006;2023-05-07T12:50:34;12.10;;;3.72;;
21905;SDS011;11117;48.644;9.006;2023-05-07T12:53:00;18.98;;;5.20;;
21905;SDS011;11117;48.644;9.006;2023-05-07T12:55:28;11.23;;;4.18;;
21905;SDS011;11117;48.644;9.006;2023-05-07T12:57:54;15.15;;;4.43;;
21905;SDS011;11117;48.644;9.006;2023-05-07T13:00:36;14.02;;;4.13;;
21905;SDS011;11117;48.644;9.006;2023-05-07T13:03:02;5.97;;;3.00;;
21905;SDS011;11117;48.644;9.006;2023-05-07T13:05:27;18.33;;;3.60;;
21905;SDS011;11117;48.644;9.006;2023-05-07T13:07:53;14.50;;;4.93;;
21905;SDS011;11117;48.644;9.006;2023-05-07T13:10:21;8.57;;;3.57;;
21905;SDS011;11117;48.644;9.006;2023-05-07T13:12:47;8.63;;;3.93;;
21905;SDS011;11117;48.644;9.006;2023-05-07T13:15:13;5.80;;;3.50;;
21905;SDS011;11117;48.644;9.006;2023-05-07T13:17:38;5.93;;;3.80;;
21905;SDS011;11117;48.644;9.006;2023-05-07T13:20:04;6.77;;;3.37;;
21905;SDS011;11117;48.644;9.006;2023-05-07T13:22:30;7.10;;;3.70;;
21905;SDS011;11117;48.644;9.006;2023-05-07T13:24:55;9.33;;;3.80;;
21905;SDS011;11117;48.644;9.006;2023-05-07T13:27:21;9.50;;;3.97;;
21905;SDS011;11117;48.644;9.006;2023-05-07T13:29:46;7.77;;;4.43;;
21905;SDS011;11117;48.644;9.006;2023-05-07T13:32:12;8.10;;;5.07;;
21905;SDS011;11117;48.644;9.006;2023-05-07T13:34:37;12.53;;;5.80;;
21905;SDS011;11117;48.644;9.006;2023-05-07T13:37:03;9.43;;;5.83;;
21905;SDS011;11117;48.644;9.006;2023-05-07T13:39:29;16.07;;;5.47;;
21905;SDS011;11117;48.644;9.006;2023-05-07T13:41:54;13.00;;;5.70;;
21905;SDS011;11117;48.644;9.006;2023-05-07T13:44:22;10.37;;;5.90;;
21905;SDS011;11117;48.644;9.006;2023-05-07T13:46:47;9.27;;;5.37;;
21905;SDS011;11117;48.644;9.006;2023-05-07T13:49:13;10.67;;;5.20;;
21905;SDS011;11117;48.644;9.006;2023-05-07T13:51:38;11.80;;;4.93;;
21905;SDS011;11117;48.644;9.006;2023-05-07T13:54:04;7.90;;;3.80;;
21905;SDS011;11117;48.644;9.006;2023-05-07T13:56:30;8.37;;;4.37;;
21905;SDS011;11117;48.644;9.006;2023-05-07T13:58:55;13.43;;;4.53;;
21905;SDS011;11117;48.644;9.006;2023-05-07T14:01:21;9.37;;;4.90;;
21905;SDS011;11117;48.644;9.006;2023-05-07T14:03:46;10.23;;;5.30;;
21905;SDS011;11117;48.644;9.006;2023-05-07T14:06:13;10.43;;;4.93;;
21905;SDS011;11117;48.644;9.006;2023-05-07T14:08:39;12.10;;;4.83;;
21905;SDS011;11117;48.644;9.006;2023-05-07T14:11:05;13.77;;;5.30;;
21905;SDS011;11117;48.644;9.006;2023-05-07T14:13:30;10.47;;;5.13;;
21905;SDS011;11117;48.644;9.006;2023-05-07T14:15:56;10.43;;;4.90;;
21905;SDS011;11117;48.644;9.006;2023-05-07T14:18:22;6.53;;;4.80;;
21905;SDS011;11117;48.644;9.006;2023-05-07T14:20:47;11.80;;;4.77;;
21905;SDS011;11117;48.644;9.006;2023-05-07T14:23:13;11.40;;;4.67;;
21905;SDS011;11117;48.644;9.006;2023-05-07T14:25:39;6.03;;;4.13;;
21905;SDS011;11117;48.644;9.006;2023-05-07T14:28:05;5.63;;;4.43;;
21905;SDS011;11117;48.644;9.006;2023-05-07T14:30:30;7.60;;;4.27;;
21905;SDS011;11117;48.644;9.006;2023-05-07T14:32:56;15.43;;;8.80;;
21905;SDS011;11117;48.644;9.006;2023-05-07T14:35:21;9.77;;;5.63;;
21905;SDS011;11117;48.644;9.006;2023-05-07T14:37:47;17.77;;;8.33;;
21905;SDS011;11117;48.644;9.006;2023-05-07T14:40:12;11.13;;;5.60;;
21905;SDS011;11117;48.644;9.006;2023-05-07T14:42:38;9.97;;;5.50;;
21905;SDS011;11117;48.644;9.006;2023-05-07T14:45:04;10.37;;;5.00;;
21905;SDS011;11117;48.644;9.006;2023-05-07T14:47:29;8.23;;;3.70;;
21905;SDS011;11117;48.644;9.006;2023-05-07T14:49:55;6.77;;;3.40;;
21905;SDS011;11117;48.644;9.006;2023-05-07T14:52:20;7.23;;;3.70;;
21905;SDS011;11117;48.644;9.006;2023-05-07T14:54:46;4.43;;;3.13;;
21905;SDS011;11117;48.644;9.006;2023-05-07T14:57:13;7.37;;;3.60;;